Freedom Township, Michigan
Current Conditions -  °F | °C
As of 12:53 PM on Saturday 25 Oct 2014 (Local Time) from KARB Reporting Station
Overcast Overcast  
Wind Chill: 62°   Ceiling: 1900
Heat Index: 62°   Visibility: 8mi
Dew Point: 51°   Wind: 16mph
Humidity: 67%   Direction: 290°WNW
Pressure: 29.82"   Gusts: NA
Location:  42.3129°N, 84.0322°W
Report Text: KARB 251653Z 29014KT 8SM OVC019 17/11 A2982 RMK AO2 RAB16E27 SLP100 P0000 T01670106
Loading
Personal Weather Stations






























Interactive Weather Map
Tropical Storm Tracking
New forecast layout! Learn more

10-Day Weather Forecast

Advertisements
Track Severe Weather on mobile